Time;durP1;ratioP1;P1;durP2;ratioP2;P2;SDS_P1;SDS_P2;PMS_P1;PMS_P2;Temp;Humidity;BMP_temperature;BMP_pressure;BME280_temperature;BME280_humidity;BME280_pressure;Samples;Min_cycle;Max_cycle;Signal;HPM_P1;HPM_P2
2022/02/25 00:01:14;;;;;;;5.77;2.33;;;;;;;;;;4957313;28;20218;-70
2022/02/25 00:03:41;;;;;;;5.87;2.50;;;;;;;;;;4941613;28;20222;-71
2022/02/25 00:06:12;;;;;;;7.00;2.57;;;;;;;;;;4952986;28;20695;-71
2022/02/25 00:08:40;;;;;;;11.70;2.47;;;;;;;;;;4982766;28;20222;-70
2022/02/25 00:11:07;;;;;;;10.53;2.80;;;;;;;;;;4974998;28;20248;-71
2022/02/25 00:13:35;;;;;;;6.70;2.63;;;;;;;;;;4984257;28;20926;-70
2022/02/25 00:16:01;;;;;;;7.70;2.70;;;;;;;;;;4955488;28;20248;-70
2022/02/25 00:18:26;;;;;;;6.90;3.00;;;;;;;;;;4957520;28;20790;-70
2022/02/25 00:20:52;;;;;;;5.57;2.53;;;;;;;;;;4989474;28;20221;-70
2022/02/25 00:23:18;;;;;;;8.33;3.30;;;;;;;;;;4941268;28;20234;-70
2022/02/25 00:25:44;;;;;;;6.80;2.93;;;;;;;;;;4992898;28;20257;-70
2022/02/25 00:28:14;;;;;;;7.80;3.57;;;;;;;;;;4959110;28;20233;-70
2022/02/25 00:30:39;;;;;;;5.00;3.20;;;;;;;;;;4960138;28;20701;-70
2022/02/25 00:33:05;;;;;;;6.70;3.50;;;;;;;;;;4943896;28;20320;-70
2022/02/25 00:35:33;;;;;;;9.87;3.13;;;;;;;;;;4943533;28;20244;-71
2022/02/25 00:38:01;;;;;;;8.90;2.97;;;;;;;;;;4988966;28;20213;-70
2022/02/25 00:40:26;;;;;;;8.27;3.20;;;;;;;;;;4985850;28;20245;-69
2022/02/25 00:42:52;;;;;;;9.07;3.17;;;;;;;;;;4976587;28;20221;-70
2022/02/25 00:45:17;;;;;;;9.50;2.63;;;;;;;;;;4934734;28;20221;-70
2022/02/25 00:47:43;;;;;;;7.63;3.10;;;;;;;;;;4965807;28;20218;-70
2022/02/25 00:50:09;;;;;;;8.87;3.37;;;;;;;;;;4954964;28;20209;-71
2022/02/25 00:52:35;;;;;;;9.53;2.93;;;;;;;;;;4974118;28;20232;-71
2022/02/25 00:55:06;;;;;;;7.10;3.10;;;;;;;;;;4940213;28;20296;-70
2022/02/25 00:57:36;;;;;;;8.20;2.83;;;;;;;;;;4958715;28;20225;-70
2022/02/25 01:00:04;;;;;;;9.10;2.90;;;;;;;;;;4936410;28;20217;-69
2022/02/25 01:02:32;;;;;;;5.57;2.70;;;;;;;;;;4983809;28;20228;-70
2022/02/25 01:05:00;;;;;;;9.23;2.70;;;;;;;;;;4957810;28;20318;-71
2022/02/25 01:07:26;;;;;;;9.03;3.23;;;;;;;;;;4984063;28;20276;-71
2022/02/25 01:09:51;;;;;;;7.00;3.17;;;;;;;;;;4959712;28;20226;-70
2022/02/25 01:12:22;;;;;;;7.33;2.73;;;;;;;;;;4951066;28;20230;-71
2022/02/25 01:14:52;;;;;;;6.17;2.70;;;;;;;;;;4952054;28;20253;-70
2022/02/25 01:17:18;;;;;;;7.07;2.60;;;;;;;;;;4966573;28;20369;-70
2022/02/25 01:19:44;;;;;;;8.40;2.70;;;;;;;;;;4964726;28;20666;-70
2022/02/25 01:22:11;;;;;;;6.83;2.63;;;;;;;;;;4952517;28;20313;-70
2022/02/25 01:24:37;;;;;;;6.03;2.30;;;;;;;;;;4937738;28;20372;-68
2022/02/25 01:27:08;;;;;;;8.90;2.73;;;;;;;;;;4926622;28;20708;-71
2022/02/25 01:29:38;;;;;;;9.67;2.47;;;;;;;;;;4968702;28;20764;-70
2022/02/25 01:32:09;;;;;;;10.83;2.83;;;;;;;;;;4951711;28;20221;-71
2022/02/25 01:34:36;;;;;;;6.13;2.20;;;;;;;;;;4960582;28;20222;-70
2022/02/25 01:37:04;;;;;;;6.27;2.03;;;;;;;;;;4986680;28;20222;-70
2022/02/25 01:39:33;;;;;;;6.47;2.30;;;;;;;;;;4965822;28;20278;-70
2022/02/25 01:42:00;;;;;;;5.30;2.37;;;;;;;;;;4960463;28;20225;-70
2022/02/25 01:44:27;;;;;;;6.50;2.33;;;;;;;;;;4949310;28;20663;-70
2022/02/25 01:46:54;;;;;;;9.57;2.43;;;;;;;;;;4938102;28;20245;-70
2022/02/25 01:49:20;;;;;;;6.53;2.43;;;;;;;;;;4956633;28;20253;-71
2022/02/25 01:51:46;;;;;;;8.03;2.13;;;;;;;;;;4967030;28;20282;-71
2022/02/25 01:54:12;;;;;;;6.30;2.10;;;;;;;;;;4940997;28;20606;-70
2022/02/25 01:56:40;;;;;;;9.57;2.77;;;;;;;;;;4973800;28;20229;-70
2022/02/25 01:59:06;;;;;;;4.30;2.03;;;;;;;;;;4965507;28;20284;-71
2022/02/25 02:01:32;;;;;;;8.70;2.80;;;;;;;;;;4976624;28;20279;-71
2022/02/25 02:03:57;;;;;;;4.63;2.20;;;;;;;;;;4983067;28;20226;-70
2022/02/25 02:06:23;;;;;;;4.53;2.17;;;;;;;;;;4967376;28;20219;-70
2022/02/25 02:08:51;;;;;;;6.73;2.40;;;;;;;;;;4950152;28;20224;-70
2022/02/25 02:11:36;;;;;;;7.73;2.27;;;;;;;;;;4942214;28;20292;-70
2022/02/25 02:14:08;;;;;;;5.40;2.40;;;;;;;;;;4955857;28;20238;-70
2022/02/25 02:16:36;;;;;;;5.20;2.07;;;;;;;;;;4971564;28;20256;-70
2022/02/25 02:19:02;;;;;;;5.47;2.30;;;;;;;;;;4956362;28;20237;-70
2022/02/25 02:21:33;;;;;;;5.27;2.30;;;;;;;;;;4966198;28;20245;-70
2022/02/25 02:23:59;;;;;;;4.17;2.03;;;;;;;;;;4940697;28;20225;-70
2022/02/25 02:26:29;;;;;;;4.53;1.90;;;;;;;;;;4953059;28;20222;-70
2022/02/25 02:28:54;;;;;;;6.40;2.00;;;;;;;;;;4937581;28;20308;-70
2022/02/25 02:31:20;;;;;;;5.33;2.20;;;;;;;;;;4959031;28;20312;-69
2022/02/25 02:33:45;;;;;;;4.57;1.83;;;;;;;;;;4957707;28;20320;-70
2022/02/25 02:36:11;;;;;;;9.20;2.10;;;;;;;;;;4965810;28;20228;-69
2022/02/25 02:38:37;;;;;;;5.70;2.23;;;;;;;;;;4967793;28;20335;-70
2022/02/25 02:41:02;;;;;;;5.50;1.90;;;;;;;;;;4934266;28;20696;-71
2022/02/25 02:43:31;;;;;;;6.17;2.07;;;;;;;;;;4982240;28;20249;-70
2022/02/25 02:45:58;;;;;;;5.73;1.70;;;;;;;;;;4947268;28;20226;-71
2022/02/25 02:48:26;;;;;;;5.57;2.10;;;;;;;;;;4939490;28;20642;-71
2022/02/25 02:50:54;;;;;;;6.40;2.00;;;;;;;;;;4972504;28;20312;-70
2022/02/25 02:53:20;;;;;;;4.23;1.80;;;;;;;;;;4980739;28;20627;-70
2022/02/25 02:55:47;;;;;;;3.10;1.50;;;;;;;;;;4967907;28;20229;-70
2022/02/25 02:58:13;;;;;;;6.07;1.87;;;;;;;;;;4971542;28;20668;-70
2022/02/25 03:00:41;;;;;;;6.50;2.37;;;;;;;;;;4941728;28;20316;-70
2022/02/25 03:03:12;;;;;;;3.87;1.40;;;;;;;;;;4934190;28;20222;-70
2022/02/25 03:05:40;;;;;;;6.40;2.00;;;;;;;;;;4949513;28;20681;-69
2022/02/25 03:08:06;;;;;;;4.93;1.50;;;;;;;;;;4933834;28;20214;-69
2022/02/25 03:10:35;;;;;;;7.33;2.00;;;;;;;;;;4925427;28;20232;-70
2022/02/25 03:13:01;;;;;;;6.50;1.53;;;;;;;;;;4935832;28;20234;-70
2022/02/25 03:15:28;;;;;;;6.60;1.70;;;;;;;;;;4957205;28;20225;-70
2022/02/25 03:17:54;;;;;;;4.80;1.80;;;;;;;;;;4947739;28;20301;-70
2022/02/25 03:20:22;;;;;;;4.70;1.67;;;;;;;;;;4948558;28;20323;-70
2022/02/25 03:22:50;;;;;;;7.13;1.97;;;;;;;;;;4965930;28;20300;-70
2022/02/25 03:25:16;;;;;;;6.50;1.80;;;;;;;;;;4954117;28;20297;-70
2022/02/25 03:27:44;;;;;;;5.27;1.93;;;;;;;;;;4968367;28;20225;-70
2022/02/25 03:30:13;;;;;;;5.13;1.40;;;;;;;;;;4973796;28;20214;-70
2022/02/25 03:32:42;;;;;;;3.13;1.50;;;;;;;;;;4958266;28;20218;-70
2022/02/25 03:35:13;;;;;;;8.73;1.93;;;;;;;;;;4967905;28;20221;-71
2022/02/25 03:37:38;;;;;;;7.53;2.20;;;;;;;;;;4965279;28;20796;-71
2022/02/25 03:40:05;;;;;;;8.13;2.00;;;;;;;;;;4935434;28;20221;-71
2022/02/25 03:42:31;;;;;;;9.27;3.43;;;;;;;;;;4983959;28;20222;-69
2022/02/25 03:44:56;;;;;;;9.77;4.20;;;;;;;;;;4977365;28;20247;-70
2022/02/25 03:47:25;;;;;;;3.33;1.60;;;;;;;;;;4966430;28;20210;-70
2022/02/25 03:49:50;;;;;;;5.80;1.90;;;;;;;;;;4975000;28;20560;-69
2022/02/25 03:52:15;;;;;;;7.40;1.80;;;;;;;;;;4951917;28;20214;-71
2022/02/25 03:54:43;;;;;;;3.63;1.50;;;;;;;;;;4955018;28;20300;-70
2022/02/25 03:57:09;;;;;;;7.53;1.93;;;;;;;;;;4967797;28;20641;-71
2022/02/25 03:59:37;;;;;;;5.80;1.90;;;;;;;;;;4954680;28;20271;-71
2022/02/25 04:02:05;;;;;;;4.50;1.70;;;;;;;;;;4983260;28;20665;-70
2022/02/25 04:04:30;;;;;;;6.20;1.67;;;;;;;;;;4955416;28;20221;-70
2022/02/25 04:06:56;;;;;;;6.70;2.10;;;;;;;;;;4966128;28;20218;-70
2022/02/25 04:09:22;;;;;;;4.83;2.20;;;;;;;;;;4937816;28;20255;-70
2022/02/25 04:11:49;;;;;;;6.00;1.93;;;;;;;;;;4950801;28;20209;-70
2022/02/25 04:14:19;;;;;;;4.97;2.23;;;;;;;;;;4952622;28;20271;-70
2022/02/25 04:16:45;;;;;;;3.60;2.10;;;;;;;;;;4935351;28;20229;-69
2022/02/25 04:19:12;;;;;;;5.70;2.17;;;;;;;;;;4953242;28;20216;-70
2022/02/25 04:21:42;;;;;;;10.93;2.33;;;;;;;;;;4953436;28;20222;-72
2022/02/25 04:24:10;;;;;;;7.10;2.60;;;;;;;;;;4974197;28;20234;-70
2022/02/25 04:26:36;;;;;;;5.60;2.30;;;;;;;;;;4944183;28;20217;-68
2022/02/25 04:29:04;;;;;;;5.67;2.50;;;;;;;;;;4963224;28;20229;-70
2022/02/25 04:31:35;;;;;;;4.77;2.17;;;;;;;;;;4971978;28;20225;-71
2022/02/25 04:34:00;;;;;;;6.53;2.40;;;;;;;;;;4980545;28;20230;-71
2022/02/25 04:36:26;;;;;;;4.20;2.30;;;;;;;;;;4946684;28;20568;-72
2022/02/25 04:38:56;;;;;;;6.33;2.60;;;;;;;;;;4982295;28;20229;-71
2022/02/25 04:41:21;;;;;;;6.27;2.67;;;;;;;;;;4978229;28;21754;-71
2022/02/25 04:43:47;;;;;;;4.33;2.30;;;;;;;;;;4955293;28;20237;-71
2022/02/25 04:46:20;;;;;;;6.17;2.60;;;;;;;;;;4967356;28;20225;-71
2022/02/25 04:48:49;;;;;;;6.00;2.73;;;;;;;;;;4981159;28;20647;-72
2022/02/25 04:51:18;;;;;;;6.90;2.60;;;;;;;;;;4967722;28;20245;-70
2022/02/25 04:53:46;;;;;;;5.80;2.67;;;;;;;;;;4946851;28;20230;-72
2022/02/25 04:56:12;;;;;;;4.97;2.97;;;;;;;;;;4977912;28;20243;-71
2022/02/25 04:58:38;;;;;;;5.93;2.73;;;;;;;;;;4948302;28;20287;-70
2022/02/25 05:01:06;;;;;;;5.60;2.63;;;;;;;;;;4960879;28;20221;-72
2022/02/25 05:03:34;;;;;;;6.17;2.57;;;;;;;;;;4967430;28;20261;-71
2022/02/25 05:06:00;;;;;;;7.23;2.63;;;;;;;;;;4942057;28;20373;-71
2022/02/25 05:08:28;;;;;;;7.87;2.63;;;;;;;;;;4967459;28;20306;-71
2022/02/25 05:10:53;;;;;;;6.17;2.67;;;;;;;;;;4963482;28;20286;-71
2022/02/25 05:13:19;;;;;;;5.20;2.27;;;;;;;;;;4942406;28;20222;-72
2022/02/25 05:21:15;;;;;;;7.20;2.40;;;;;;;;;;4983665;28;20253;-72
2022/02/25 05:23:46;;;;;;;6.20;2.50;;;;;;;;;;4936305;28;20218;-72
2022/02/25 05:26:16;;;;;;;7.07;2.43;;;;;;;;;;4956850;28;20249;-72
2022/02/25 05:28:46;;;;;;;5.63;2.77;;;;;;;;;;4940157;28;20236;-72
2022/02/25 05:31:15;;;;;;;4.97;2.33;;;;;;;;;;4952974;28;20708;-72
2022/02/25 05:33:47;;;;;;;8.73;2.30;;;;;;;;;;4936267;28;20229;-72
2022/02/25 05:36:16;;;;;;;6.57;2.53;;;;;;;;;;4937371;28;20593;-71
2022/02/25 05:38:41;;;;;;;5.87;3.03;;;;;;;;;;4972033;28;20217;-72
2022/02/25 05:41:07;;;;;;;6.87;2.40;;;;;;;;;;4974470;28;20221;-72
2022/02/25 05:43:34;;;;;;;6.70;2.70;;;;;;;;;;4967868;28;20571;-71
2022/02/25 05:46:02;;;;;;;8.63;2.60;;;;;;;;;;4936392;28;20661;-72
2022/02/25 05:48:28;;;;;;;6.67;2.40;;;;;;;;;;4958865;28;20597;-72
2022/02/25 05:50:53;;;;;;;5.93;2.37;;;;;;;;;;4974829;28;20222;-72
2022/02/25 05:53:19;;;;;;;4.10;1.90;;;;;;;;;;4966136;28;20217;-71
2022/02/25 05:55:45;;;;;;;7.20;2.30;;;;;;;;;;4968857;28;20708;-72
2022/02/25 05:58:11;;;;;;;6.50;2.00;;;;;;;;;;4971301;28;20218;-72
2022/02/25 06:00:38;;;;;;;6.83;2.50;;;;;;;;;;4966676;28;20253;-72
2022/02/25 06:03:12;;;;;;;8.07;2.30;;;;;;;;;;4933647;28;20245;-72
2022/02/25 06:05:37;;;;;;;9.27;2.40;;;;;;;;;;4959129;28;20337;-73
2022/02/25 06:08:08;;;;;;;7.20;2.30;;;;;;;;;;4968696;28;20229;-72
2022/02/25 06:10:38;;;;;;;6.13;2.37;;;;;;;;;;4962228;28;20249;-71
2022/02/25 06:13:06;;;;;;;9.37;2.57;;;;;;;;;;4982826;28;20708;-71
2022/02/25 06:15:43;;;;;;;11.37;3.00;;;;;;;;;;4959091;28;20217;-71
2022/02/25 06:18:11;;;;;;;7.40;2.70;;;;;;;;;;4961295;28;20229;-71
2022/02/25 06:20:39;;;;;;;5.77;2.60;;;;;;;;;;4950758;28;20229;-71
2022/02/25 06:23:10;;;;;;;6.33;2.53;;;;;;;;;;4954098;28;20222;-72
2022/02/25 06:28:03;;;;;;;6.67;2.37;;;;;;;;;;4979697;28;20719;-71
2022/02/25 06:30:34;;;;;;;7.03;2.60;;;;;;;;;;4973654;28;20225;-71
2022/02/25 06:33:00;;;;;;;8.70;2.87;;;;;;;;;;4973972;28;20320;-70
2022/02/25 06:35:28;;;;;;;7.60;2.00;;;;;;;;;;4969572;28;20308;-71
2022/02/25 06:37:56;;;;;;;8.37;2.97;;;;;;;;;;4973299;28;20596;-71
2022/02/25 06:40:24;;;;;;;10.80;2.80;;;;;;;;;;4958681;28;20225;-71
2022/02/25 06:42:49;;;;;;;7.60;2.67;;;;;;;;;;4957370;28;20267;-72
2022/02/25 06:45:15;;;;;;;8.53;2.93;;;;;;;;;;4972197;28;20308;-71
2022/02/25 06:47:43;;;;;;;7.37;2.53;;;;;;;;;;4989469;28;20224;-71
2022/02/25 06:50:09;;;;;;;7.60;3.10;;;;;;;;;;4940249;28;20217;-71
2022/02/25 06:52:35;;;;;;;9.03;2.90;;;;;;;;;;4973495;28;20264;-71
2022/02/25 06:55:01;;;;;;;6.90;3.20;;;;;;;;;;4956974;28;20217;-71
2022/02/25 06:57:31;;;;;;;10.70;3.33;;;;;;;;;;4960121;28;20319;-71
2022/02/25 06:59:57;;;;;;;7.17;3.27;;;;;;;;;;4973894;28;20244;-71
2022/02/25 07:02:24;;;;;;;9.47;2.80;;;;;;;;;;4957395;28;20593;-71
2022/02/25 07:04:50;;;;;;;9.17;3.57;;;;;;;;;;4935996;28;20233;-73
2022/02/25 07:07:17;;;;;;;8.83;3.30;;;;;;;;;;4941611;28;20885;-73
2022/02/25 07:09:43;;;;;;;8.57;2.90;;;;;;;;;;4942336;28;20218;-73
2022/02/25 07:12:11;;;;;;;9.67;3.17;;;;;;;;;;4990172;28;20295;-73
2022/02/25 07:14:39;;;;;;;7.93;3.00;;;;;;;;;;4976216;28;20257;-73
2022/02/25 07:17:08;;;;;;;8.13;3.07;;;;;;;;;;4976796;28;20221;-73
2022/02/25 07:19:38;;;;;;;7.43;2.83;;;;;;;;;;4960191;28;20308;-73
2022/02/25 07:22:03;;;;;;;7.93;2.70;;;;;;;;;;4970175;28;20231;-73
2022/02/25 07:24:29;;;;;;;10.03;3.20;;;;;;;;;;4962139;28;20229;-73
2022/02/25 07:26:59;;;;;;;9.37;2.97;;;;;;;;;;4961429;28;20304;-72
2022/02/25 07:29:24;;;;;;;7.63;2.80;;;;;;;;;;4970684;28;20237;-73
2022/02/25 07:31:57;;;;;;;8.33;3.37;;;;;;;;;;4938824;28;20237;-73
2022/02/25 07:34:26;;;;;;;10.93;3.07;;;;;;;;;;4953821;28;20265;-72
2022/02/25 07:36:54;;;;;;;8.17;3.47;;;;;;;;;;4961407;28;20214;-72
2022/02/25 07:39:22;;;;;;;11.77;3.63;;;;;;;;;;4977033;28;20237;-73
2022/02/25 07:41:47;;;;;;;11.30;3.13;;;;;;;;;;4995531;28;20344;-72
2022/02/25 07:44:13;;;;;;;10.07;3.83;;;;;;;;;;4944784;28;20217;-71
2022/02/25 07:46:41;;;;;;;9.50;3.13;;;;;;;;;;4959358;28;20293;-72
2022/02/25 07:49:06;;;;;;;6.37;2.80;;;;;;;;;;4960953;28;20228;-73
2022/02/25 07:51:31;;;;;;;9.20;2.97;;;;;;;;;;4960907;28;20603;-73
2022/02/25 07:54:01;;;;;;;8.47;3.10;;;;;;;;;;4940377;28;20237;-74
2022/02/25 07:56:31;;;;;;;6.20;3.23;;;;;;;;;;4961048;28;20213;-73
2022/02/25 07:58:59;;;;;;;8.83;3.43;;;;;;;;;;4959825;28;20304;-74
2022/02/25 08:01:25;;;;;;;8.70;3.40;;;;;;;;;;4993328;28;20768;-73
2022/02/25 08:03:52;;;;;;;9.40;3.47;;;;;;;;;;4976350;28;20313;-74
2022/02/25 08:06:18;;;;;;;11.47;3.47;;;;;;;;;;4960097;28;20233;-74
2022/02/25 08:08:44;;;;;;;12.63;3.57;;;;;;;;;;4959999;28;20221;-74
2022/02/25 08:11:11;;;;;;;9.97;3.50;;;;;;;;;;4959015;28;20248;-74
2022/02/25 08:13:39;;;;;;;9.60;3.43;;;;;;;;;;4960070;28;20260;-74
2022/02/25 08:16:07;;;;;;;9.83;3.57;;;;;;;;;;4942246;28;20309;-74
2022/02/25 08:18:37;;;;;;;8.93;3.37;;;;;;;;;;4959762;28;20256;-74
2022/02/25 08:21:03;;;;;;;10.93;3.33;;;;;;;;;;4957448;28;20245;-73
2022/02/25 08:23:29;;;;;;;7.83;3.57;;;;;;;;;;4975380;28;20225;-73
2022/02/25 08:25:56;;;;;;;8.73;3.63;;;;;;;;;;4974022;28;20223;-73
2022/02/25 08:28:29;;;;;;;7.60;3.77;;;;;;;;;;4988341;28;20217;-74
2022/02/25 08:30:54;;;;;;;10.43;4.07;;;;;;;;;;4958405;28;20222;-73
2022/02/25 08:33:24;;;;;;;13.07;4.73;;;;;;;;;;4923491;28;20713;-72
2022/02/25 08:35:54;;;;;;;7.27;4.17;;;;;;;;;;4959803;28;20232;-73
2022/02/25 08:38:20;;;;;;;12.83;3.67;;;;;;;;;;4943834;28;20249;-73
2022/02/25 08:40:47;;;;;;;8.93;3.90;;;;;;;;;;4960311;28;20312;-73
2022/02/25 08:43:13;;;;;;;9.63;3.67;;;;;;;;;;4976006;28;20264;-73
2022/02/25 08:45:42;;;;;;;8.70;3.40;;;;;;;;;;4943955;28;20233;-74
2022/02/25 08:48:08;;;;;;;6.47;3.20;;;;;;;;;;4975086;28;20801;-73
2022/02/25 08:50:34;;;;;;;8.50;3.80;;;;;;;;;;4976375;28;20225;-73
2022/02/25 08:52:59;;;;;;;6.40;3.07;;;;;;;;;;4959532;28;20248;-73
2022/02/25 08:55:28;;;;;;;10.17;3.27;;;;;;;;;;4943677;28;20217;-73
2022/02/25 08:57:53;;;;;;;7.97;3.07;;;;;;;;;;4966309;28;20224;-72
2022/02/25 09:00:23;;;;;;;7.63;3.33;;;;;;;;;;4943165;28;20218;-74
2022/02/25 09:02:49;;;;;;;10.33;3.50;;;;;;;;;;4950059;28;20615;-73
2022/02/25 09:05:15;;;;;;;10.20;4.00;;;;;;;;;;4958181;28;20234;-74
2022/02/25 09:07:40;;;;;;;9.27;3.63;;;;;;;;;;4943469;28;20214;-73
2022/02/25 09:10:06;;;;;;;10.30;3.57;;;;;;;;;;4975373;28;20758;-74
2022/02/25 09:12:33;;;;;;;11.23;3.67;;;;;;;;;;4959261;28;20732;-73
2022/02/25 09:15:03;;;;;;;10.00;3.77;;;;;;;;;;4958734;28;20225;-73
2022/02/25 09:17:29;;;;;;;7.93;3.83;;;;;;;;;;4943908;28;20835;-73
2022/02/25 09:19:54;;;;;;;7.80;3.83;;;;;;;;;;4975484;28;20285;-73
2022/02/25 09:22:20;;;;;;;9.23;3.60;;;;;;;;;;4959046;28;20316;-73
2022/02/25 09:24:46;;;;;;;10.97;4.10;;;;;;;;;;4987979;28;20308;-72
2022/02/25 09:27:14;;;;;;;14.60;3.80;;;;;;;;;;4948677;28;20292;-73
2022/02/25 09:29:42;;;;;;;9.63;4.20;;;;;;;;;;4943139;28;20712;-72
2022/02/25 09:32:08;;;;;;;11.53;3.93;;;;;;;;;;4958180;28;20213;-73
2022/02/25 09:34:38;;;;;;;13.43;4.77;;;;;;;;;;4955966;28;20237;-73
2022/02/25 09:37:04;;;;;;;11.27;4.23;;;;;;;;;;4941412;28;20228;-73
2022/02/25 09:39:32;;;;;;;8.03;4.43;;;;;;;;;;4958735;28;20217;-73
2022/02/25 09:41:58;;;;;;;7.93;3.87;;;;;;;;;;4958691;28;20316;-73
2022/02/25 09:44:27;;;;;;;12.13;4.80;;;;;;;;;;4960702;28;20217;-73
2022/02/25 09:46:55;;;;;;;8.57;4.07;;;;;;;;;;4991551;28;20232;-74
2022/02/25 09:49:21;;;;;;;11.77;4.50;;;;;;;;;;4972769;28;20288;-73
2022/02/25 09:51:47;;;;;;;12.20;4.30;;;;;;;;;;4958745;28;20605;-73
2022/02/25 09:54:18;;;;;;;12.20;5.53;;;;;;;;;;4957005;28;20229;-72
2022/02/25 09:56:47;;;;;;;11.60;5.43;;;;;;;;;;4942422;28;20609;-74
2022/02/25 09:59:13;;;;;;;11.33;5.30;;;;;;;;;;4973510;28;20213;-73
2022/02/25 10:01:41;;;;;;;13.70;5.50;;;;;;;;;;4957860;28;20221;-73
2022/02/25 10:04:14;;;;;;;15.53;5.40;;;;;;;;;;4924689;28;20217;-73
2022/02/25 10:06:40;;;;;;;12.20;4.83;;;;;;;;;;4942481;28;20622;-74
2022/02/25 10:09:39;;;;;;;14.13;5.10;;;;;;;;;;4949249;28;20287;-73
2022/02/25 10:12:09;;;;;;;14.70;5.37;;;;;;;;;;4973496;28;20623;-73
2022/02/25 10:14:43;;;;;;;8.27;4.60;;;;;;;;;;4942368;28;20276;-74
2022/02/25 10:17:17;;;;;;;8.93;5.10;;;;;;;;;;4954309;28;20225;-73
2022/02/25 10:19:54;;;;;;;12.53;4.53;;;;;;;;;;4939528;28;20231;-72
2022/02/25 10:22:25;;;;;;;12.80;4.93;;;;;;;;;;4956137;28;20275;-72
2022/02/25 10:25:01;;;;;;;8.90;4.23;;;;;;;;;;4977546;28;20228;-73
2022/02/25 10:27:34;;;;;;;11.37;4.23;;;;;;;;;;4944352;28;20288;-73
2022/02/25 10:30:03;;;;;;;8.83;3.90;;;;;;;;;;4942066;28;20699;-72
2022/02/25 10:32:36;;;;;;;7.70;4.13;;;;;;;;;;4971972;28;20575;-73
2022/02/25 10:35:21;;;;;;;7.60;3.80;;;;;;;;;;4957438;28;20714;-74
2022/02/25 10:38:03;;;;;;;8.30;3.80;;;;;;;;;;4988291;28;20307;-73
2022/02/25 10:40:31;;;;;;;8.67;3.77;;;;;;;;;;4990516;28;20225;-73
2022/02/25 10:42:56;;;;;;;10.27;4.03;;;;;;;;;;4921898;28;20218;-73
2022/02/25 10:45:30;;;;;;;12.10;4.07;;;;;;;;;;4940508;28;20283;-73
2022/02/25 10:48:05;;;;;;;11.20;3.43;;;;;;;;;;4957493;28;20233;-73
2022/02/25 10:50:45;;;;;;;9.00;3.60;;;;;;;;;;4957347;28;20720;-74
2022/02/25 10:53:10;;;;;;;8.60;3.33;;;;;;;;;;4967085;28;20226;-73
2022/02/25 10:55:38;;;;;;;7.13;3.20;;;;;;;;;;4957011;28;20233;-73
2022/02/25 10:58:03;;;;;;;10.20;4.20;;;;;;;;;;4941023;28;20216;-73
2022/02/25 11:00:31;;;;;;;8.73;3.40;;;;;;;;;;4956332;28;20706;-73
2022/02/25 11:03:00;;;;;;;7.47;3.60;;;;;;;;;;4941019;28;20304;-73
2022/02/25 11:05:32;;;;;;;8.93;3.40;;;;;;;;;;4956816;28;20240;-73
2022/02/25 11:08:02;;;;;;;8.37;3.70;;;;;;;;;;4925842;28;20311;-73
2022/02/25 11:10:34;;;;;;;8.97;3.20;;;;;;;;;;4957183;28;20226;-73
2022/02/25 11:13:07;;;;;;;8.47;3.70;;;;;;;;;;4974806;28;20229;-73
2022/02/25 11:15:42;;;;;;;8.43;3.50;;;;;;;;;;4940367;28;20225;-73
2022/02/25 11:18:08;;;;;;;8.60;3.20;;;;;;;;;;4941745;28;20231;-73
2022/02/25 11:20:35;;;;;;;8.03;3.40;;;;;;;;;;4941092;28;20311;-72
2022/02/25 11:23:06;;;;;;;9.17;3.53;;;;;;;;;;4941265;28;20603;-73
2022/02/25 11:25:33;;;;;;;13.77;3.77;;;;;;;;;;4965701;28;20229;-73
2022/02/25 11:28:01;;;;;;;11.07;3.03;;;;;;;;;;4951560;28;20224;-72
2022/02/25 11:30:37;;;;;;;9.70;3.13;;;;;;;;;;4939831;28;20229;-73
2022/02/25 11:33:12;;;;;;;9.13;3.00;;;;;;;;;;4941658;28;20226;-72
2022/02/25 11:35:46;;;;;;;13.97;3.60;;;;;;;;;;4957733;28;20266;-72
2022/02/25 11:38:12;;;;;;;7.10;3.37;;;;;;;;;;4972103;28;20218;-72
2022/02/25 11:40:52;;;;;;;9.40;4.10;;;;;;;;;;4940711;28;20589;-72
2022/02/25 11:43:50;;;;;;;9.60;3.03;;;;;;;;;;4941381;28;20356;-72
2022/02/25 11:46:22;;;;;;;5.57;2.47;;;;;;;;;;4971027;28;20280;-72
2022/02/25 11:49:12;;;;;;;7.27;2.67;;;;;;;;;;4973356;28;20320;-72
2022/02/25 11:51:44;;;;;;;10.80;2.63;;;;;;;;;;4980840;28;20229;-72
2022/02/25 11:54:23;;;;;;;10.73;2.90;;;;;;;;;;4957395;28;20229;-71
2022/02/25 11:57:08;;;;;;;8.63;2.70;;;;;;;;;;4973229;28;20565;-73
2022/02/25 11:59:33;;;;;;;6.70;2.70;;;;;;;;;;4970963;28;20226;-72
2022/02/25 12:02:05;;;;;;;8.83;3.00;;;;;;;;;;4997582;28;20309;-73
2022/02/25 12:04:38;;;;;;;8.40;2.23;;;;;;;;;;4969841;28;20232;-73
2022/02/25 12:07:16;;;;;;;6.30;2.57;;;;;;;;;;4968313;28;20213;-72
2022/02/25 12:09:52;;;;;;;5.77;2.77;;;;;;;;;;4967908;28;20238;-73
2022/02/25 12:12:23;;;;;;;5.07;2.13;;;;;;;;;;4965440;28;20221;-73
2022/02/25 12:15:22;;;;;;;8.73;2.50;;;;;;;;;;4963958;28;20225;-74
2022/02/25 12:17:58;;;;;;;5.27;2.23;;;;;;;;;;4980584;28;20222;-73
2022/02/25 12:20:44;;;;;;;4.37;2.10;;;;;;;;;;4964420;28;20241;-72
2022/02/25 12:23:18;;;;;;;4.37;2.10;;;;;;;;;;4971474;28;20218;-73
2022/02/25 12:25:47;;;;;;;5.70;1.97;;;;;;;;;;4963131;28;20323;-72
2022/02/25 12:28:31;;;;;;;5.13;2.27;;;;;;;;;;4979961;28;20285;-72
2022/02/25 12:31:06;;;;;;;5.03;2.20;;;;;;;;;;4995338;28;20256;-72
2022/02/25 12:33:36;;;;;;;6.00;2.90;;;;;;;;;;4995409;28;20287;-71
2022/02/25 12:36:35;;;;;;;7.13;2.60;;;;;;;;;;4964721;28;20361;-72
2022/02/25 12:39:03;;;;;;;6.57;2.67;;;;;;;;;;4947702;28;20233;-73
2022/02/25 12:41:31;;;;;;;6.20;2.67;;;;;;;;;;4959526;28;20217;-72
2022/02/25 12:44:27;;;;;;;6.17;3.00;;;;;;;;;;4944649;28;20233;-72
2022/02/25 12:47:00;;;;;;;5.73;2.20;;;;;;;;;;4976626;28;20213;-72
2022/02/25 12:49:29;;;;;;;5.17;2.40;;;;;;;;;;4957396;28;20633;-73
2022/02/25 12:51:55;;;;;;;3.73;2.20;;;;;;;;;;4957753;28;20232;-73
2022/02/25 12:54:26;;;;;;;5.07;2.27;;;;;;;;;;4945094;28;20238;-72
2022/02/25 12:57:00;;;;;;;4.63;1.77;;;;;;;;;;4943942;28;20221;-72
2022/02/25 12:59:56;;;;;;;3.60;1.60;;;;;;;;;;4943933;28;20221;-72
2022/02/25 13:02:22;;;;;;;5.13;2.40;;;;;;;;;;4955035;28;20257;-73
2022/02/25 13:04:55;;;;;;;11.13;2.10;;;;;;;;;;4958196;28;20312;-72
2022/02/25 13:07:23;;;;;;;5.53;1.80;;;;;;;;;;4972083;28;20888;-72
2022/02/25 13:09:51;;;;;;;3.47;1.40;;;;;;;;;;4956430;28;20222;-72
2022/02/25 13:12:18;;;;;;;4.90;1.83;;;;;;;;;;4958690;28;20565;-72
2022/02/25 13:14:46;;;;;;;8.03;1.63;;;;;;;;;;4958418;28;20240;-72
2022/02/25 13:17:15;;;;;;;5.30;1.97;;;;;;;;;;4975253;28;20595;-73
2022/02/25 13:19:51;;;;;;;4.67;1.60;;;;;;;;;;4978524;28;20592;-73
2022/02/25 13:22:22;;;;;;;7.27;1.70;;;;;;;;;;4981247;28;20233;-73
2022/02/25 13:25:02;;;;;;;3.30;1.40;;;;;;;;;;4939898;28;20213;-73
2022/02/25 13:27:39;;;;;;;3.73;1.30;;;;;;;;;;4958870;28;20260;-73
2022/02/25 13:30:10;;;;;;;4.93;1.67;;;;;;;;;;4948917;28;20221;-73
2022/02/25 13:32:38;;;;;;;4.10;1.50;;;;;;;;;;4977070;28;20267;-73
2022/02/25 13:35:08;;;;;;;6.40;1.70;;;;;;;;;;4957785;28;20251;-73
2022/02/25 13:38:02;;;;;;;6.20;1.47;;;;;;;;;;4942843;28;20221;-73
2022/02/25 13:40:35;;;;;;;5.17;1.50;;;;;;;;;;4958791;28;20304;-73
2022/02/25 13:43:04;;;;;;;5.43;1.67;;;;;;;;;;4959176;28;20222;-73
2022/02/25 13:45:31;;;;;;;5.00;1.50;;;;;;;;;;4942378;28;20230;-73
2022/02/25 13:53:36;;;;;;;6.90;1.70;;;;;;;;;;4968840;28;20348;-73
2022/02/25 13:56:06;;;;;;;6.23;2.00;;;;;;;;;;4958745;28;20832;-72
2022/02/25 13:58:37;;;;;;;6.17;1.80;;;;;;;;;;4959508;28;20718;-72
2022/02/25 14:01:02;;;;;;;5.10;1.77;;;;;;;;;;4941049;28;20268;-74
2022/02/25 14:03:43;;;;;;;3.67;1.40;;;;;;;;;;4991425;28;20221;-73
2022/02/25 14:06:26;;;;;;;6.53;1.50;;;;;;;;;;4942704;28;20252;-73
2022/02/25 14:08:55;;;;;;;6.10;1.73;;;;;;;;;;4949463;28;20309;-73
2022/02/25 14:11:35;;;;;;;7.60;1.83;;;;;;;;;;4924312;28;20226;-73
2022/02/25 14:14:02;;;;;;;4.97;1.63;;;;;;;;;;4942802;28;20241;-73
2022/02/25 14:16:28;;;;;;;5.53;1.80;;;;;;;;;;4959574;28;20244;-73
2022/02/25 14:19:15;;;;;;;5.17;1.83;;;;;;;;;;4956425;28;20700;-72
2022/02/25 14:21:43;;;;;;;7.60;1.70;;;;;;;;;;4975088;28;20271;-73
2022/02/25 14:24:22;;;;;;;5.57;1.90;;;;;;;;;;4956497;28;20766;-73
2022/02/25 14:27:06;;;;;;;8.80;2.60;;;;;;;;;;4988280;28;20854;-73
2022/02/25 14:29:31;;;;;;;6.17;1.90;;;;;;;;;;4942587;28;20228;-73
2022/02/25 14:32:13;;;;;;;5.97;1.50;;;;;;;;;;4973121;28;20773;-73
2022/02/25 14:34:44;;;;;;;4.27;1.90;;;;;;;;;;4953468;28;20328;-72
2022/02/25 14:37:29;;;;;;;5.33;1.57;;;;;;;;;;4973776;28;20217;-73
2022/02/25 14:39:58;;;;;;;5.53;2.03;;;;;;;;;;4956979;28;20576;-72
2022/02/25 14:42:23;;;;;;;7.17;1.90;;;;;;;;;;4962733;28;20300;-71
2022/02/25 14:44:50;;;;;;;4.37;1.30;;;;;;;;;;4981061;28;20225;-71
2022/02/25 14:47:15;;;;;;;4.40;1.30;;;;;;;;;;4973601;28;20602;-72
2022/02/25 14:49:41;;;;;;;5.83;1.80;;;;;;;;;;4960227;28;20213;-71
2022/02/25 14:52:10;;;;;;;3.83;1.50;;;;;;;;;;4959949;28;20256;-72
2022/02/25 14:54:38;;;;;;;7.40;1.50;;;;;;;;;;4973171;28;20692;-72
2022/02/25 14:57:05;;;;;;;5.77;1.50;;;;;;;;;;4957106;28;20217;-71
2022/02/25 14:59:31;;;;;;;3.67;1.50;;;;;;;;;;4942443;28;20240;-71
2022/02/25 15:01:59;;;;;;;5.47;1.43;;;;;;;;;;4973700;28;20225;-71
2022/02/25 15:04:24;;;;;;;4.73;1.03;;;;;;;;;;4956542;28;20225;-71
2022/02/25 15:06:52;;;;;;;6.87;1.50;;;;;;;;;;4953155;28;20217;-70